createdAt,value
2022-09-13T00:02:34.778Z,2.97
2022-09-13T00:05:36.836Z,2.78
2022-09-13T00:08:38.335Z,2.72
2022-09-13T00:11:39.580Z,3.38
2022-09-13T00:14:41.003Z,3.03
2022-09-13T00:17:42.296Z,3.00
2022-09-13T00:20:43.650Z,2.83
2022-09-13T00:23:45.799Z,2.40
2022-09-13T00:26:47.046Z,3.33
2022-09-13T00:29:48.362Z,2.88
2022-09-13T00:32:49.600Z,2.90
2022-09-13T00:35:50.886Z,2.85
2022-09-13T00:38:52.219Z,2.75
2022-09-13T00:41:53.473Z,3.35
2022-09-13T00:45:02.526Z,2.70
2022-09-13T00:48:05.983Z,3.75
2022-09-13T00:51:08.763Z,2.70
2022-09-13T00:54:10.433Z,3.00
2022-09-13T00:57:11.961Z,3.08
2022-09-13T01:00:16.405Z,3.45
2022-09-13T01:03:19.958Z,2.88
2022-09-13T01:06:23.844Z,3.00
2022-09-13T01:09:25.496Z,3.38
2022-09-13T01:12:49.485Z,3.00
2022-09-13T01:18:51.889Z,2.25
2022-09-13T01:22:10.421Z,2.55
2022-09-13T01:25:17.852Z,2.50
2022-09-13T01:28:31.556Z,3.08
2022-09-13T01:31:32.823Z,3.17
2022-09-13T01:34:34.070Z,2.58
2022-09-13T01:37:38.325Z,2.40
2022-09-13T01:40:57.556Z,3.03
2022-09-13T01:44:12.601Z,3.10
2022-09-13T01:47:24.465Z,2.70
2022-09-13T01:50:25.664Z,3.25
2022-09-13T01:53:40.510Z,2.88
2022-09-13T01:57:01.003Z,2.92
2022-09-13T02:00:12.084Z,2.70
2022-09-13T02:03:18.264Z,2.88
2022-09-13T02:06:25.824Z,3.15
2022-09-13T02:09:28.118Z,2.60
2022-09-13T02:12:31.829Z,2.63
2022-09-13T02:15:41.505Z,2.85
2022-09-13T02:18:44.724Z,3.42
2022-09-13T02:21:58.370Z,2.63
2022-09-13T02:25:01.866Z,3.17
2022-09-13T02:28:06.609Z,2.60
2022-09-13T02:31:08.995Z,3.42
2022-09-13T02:34:22.294Z,2.88
2022-09-13T02:37:24.922Z,3.47
2022-09-13T02:40:28.431Z,2.72
2022-09-13T02:43:33.150Z,2.83
2022-09-13T02:46:58.808Z,2.83
2022-09-13T02:50:18.825Z,3.10
2022-09-13T02:53:29.175Z,3.88
2022-09-13T02:56:38.052Z,2.78
2022-09-13T02:59:39.296Z,2.92
2022-09-13T03:02:42.737Z,3.70
2022-09-13T03:05:44.057Z,3.00
2022-09-13T03:08:45.447Z,3.80
2022-09-13T03:12:05.407Z,4.13
2022-09-13T03:15:06.623Z,3.42
2022-09-13T03:18:23.446Z,3.28
2022-09-13T03:21:38.336Z,3.78
2022-09-13T03:24:42.652Z,3.55
2022-09-13T03:30:49.500Z,3.83
2022-09-13T03:34:06.979Z,4.03
2022-09-13T03:40:12.833Z,3.53
2022-09-13T03:43:16.858Z,3.47
2022-09-13T03:46:38.371Z,3.25
2022-09-13T03:49:39.797Z,3.85
2022-09-13T03:52:46.290Z,3.53
2022-09-13T03:55:47.761Z,3.22
2022-09-13T03:58:49.654Z,3.50
2022-09-13T04:01:50.975Z,3.90
2022-09-13T04:04:52.238Z,3.50
2022-09-13T04:07:53.476Z,3.38
2022-09-13T04:10:54.780Z,3.30
2022-09-13T04:13:56.074Z,3.38
2022-09-13T04:16:57.894Z,3.67
2022-09-13T04:19:59.124Z,4.90
2022-09-13T04:23:00.537Z,3.45
2022-09-13T04:26:05.834Z,3.20
2022-09-13T04:29:07.089Z,3.33
2022-09-13T04:32:09.487Z,3.60
2022-09-13T04:35:11.710Z,4.35
2022-09-13T04:38:12.936Z,3.58
2022-09-13T04:41:14.415Z,4.25
2022-09-13T04:44:16.506Z,3.78
2022-09-13T04:47:18.319Z,3.55
2022-09-13T04:50:23.304Z,4.05
2022-09-13T04:53:24.537Z,3.88
2022-09-13T04:56:25.972Z,4.18
2022-09-13T04:59:27.795Z,3.88
2022-09-13T05:02:29.088Z,3.60
2022-09-13T05:05:32.262Z,3.70
2022-09-13T05:08:33.594Z,4.00
2022-09-13T05:11:34.891Z,3.80
2022-09-13T05:14:39.497Z,4.13
2022-09-13T05:17:40.761Z,3.85
2022-09-13T05:20:42.011Z,3.38
2022-09-13T05:23:43.527Z,3.38
2022-09-13T05:26:44.777Z,3.17
2022-09-13T05:29:49.253Z,3.40
2022-09-13T05:32:50.470Z,3.17
2022-09-13T05:35:51.959Z,3.33
2022-09-13T05:39:18.783Z,3.28
2022-09-13T05:42:18.278Z,3.42
2022-09-13T05:45:19.522Z,3.78
2022-09-13T05:48:20.761Z,3.30
2022-09-13T05:51:22.210Z,3.65
2022-09-13T05:54:23.544Z,3.50
2022-09-13T05:57:24.772Z,3.30
2022-09-13T06:00:26.035Z,4.22
2022-09-13T06:03:27.369Z,3.70
2022-09-13T06:06:28.618Z,5.03
2022-09-13T06:09:30.070Z,3.97
2022-09-13T06:12:31.449Z,3.67
2022-09-13T06:15:32.725Z,3.65
2022-09-13T06:18:34.185Z,3.83
2022-09-13T06:21:35.835Z,3.65
2022-09-13T06:24:38.239Z,3.70
2022-09-13T06:27:39.486Z,3.58
2022-09-13T06:30:40.807Z,3.55
2022-09-13T06:33:42.710Z,3.50
2022-09-13T06:36:44.167Z,4.53
2022-09-13T06:39:45.590Z,3.30
2022-09-13T06:42:46.963Z,3.33
2022-09-13T06:45:48.339Z,3.38
2022-09-13T06:48:49.822Z,3.70
2022-09-13T06:51:51.196Z,3.35
2022-09-13T06:54:52.503Z,3.90
2022-09-13T06:57:53.746Z,3.58
2022-09-13T07:00:56.243Z,3.83
2022-09-13T07:03:58.925Z,4.00
2022-09-13T07:07:00.484Z,3.55
2022-09-13T07:10:01.750Z,4.93
2022-09-13T07:13:03.052Z,3.95
2022-09-13T07:16:08.648Z,3.60
2022-09-13T07:19:24.729Z,4.43
2022-09-13T07:22:27.754Z,3.60
2022-09-13T07:25:29.349Z,3.17
2022-09-13T07:28:38.215Z,3.95
2022-09-13T07:31:40.234Z,4.47
2022-09-13T07:34:44.942Z,4.38
2022-09-13T07:37:46.708Z,3.92
2022-09-13T07:40:58.086Z,3.63
2022-09-13T07:44:01.519Z,4.20
2022-09-13T07:47:02.905Z,4.18
2022-09-13T07:50:04.286Z,3.67
2022-09-13T07:53:05.544Z,3.75
2022-09-13T07:56:08.363Z,4.20
2022-09-13T07:59:14.368Z,3.90
2022-09-13T08:02:16.753Z,4.28
2022-09-13T08:05:18.161Z,3.58
2022-09-13T08:08:20.153Z,3.88
2022-09-13T08:11:29.599Z,3.72
2022-09-13T08:14:30.827Z,3.72
2022-09-13T08:17:32.062Z,5.55
2022-09-13T08:20:42.179Z,4.03
2022-09-13T08:23:46.931Z,4.65
2022-09-13T08:26:48.930Z,3.45
2022-09-13T08:29:50.233Z,3.63
2022-09-13T08:32:51.564Z,3.90
2022-09-13T08:35:53.113Z,4.22
2022-09-13T08:38:55.850Z,4.50
2022-09-13T08:42:05.460Z,3.80
2022-09-13T08:45:08.087Z,3.83
2022-09-13T08:48:14.249Z,3.67
2022-09-13T08:51:24.666Z,3.97
2022-09-13T08:57:35.994Z,3.50
2022-09-13T09:00:39.975Z,3.67
2022-09-13T09:03:52.959Z,4.05
2022-09-13T09:07:05.777Z,3.38
2022-09-13T09:10:18.873Z,3.28
2022-09-13T09:13:24.330Z,3.90
2022-09-13T09:16:38.388Z,3.60
2022-09-13T09:19:41.975Z,3.20
2022-09-13T09:22:44.336Z,3.38
2022-09-13T09:25:45.661Z,3.50
2022-09-13T09:28:58.208Z,3.45
2022-09-13T09:32:10.110Z,3.58
2022-09-13T09:35:20.097Z,3.72
2022-09-13T09:38:25.809Z,3.90
2022-09-13T09:41:34.482Z,3.55
2022-09-13T09:44:35.828Z,3.58
2022-09-13T09:47:44.403Z,3.70
2022-09-13T09:50:49.108Z,3.90
2022-09-13T09:53:53.869Z,4.22
2022-09-13T09:56:55.810Z,3.70
2022-09-13T10:00:09.966Z,4.60
2022-09-13T10:03:18.498Z,3.60
2022-09-13T10:06:21.196Z,3.67
2022-09-13T10:09:22.984Z,3.47
2022-09-13T10:12:28.695Z,3.35
2022-09-13T10:15:34.162Z,3.65
2022-09-13T10:18:53.648Z,3.33
2022-09-13T10:22:02.833Z,3.45
2022-09-13T10:25:23.869Z,3.63
2022-09-13T10:28:26.011Z,3.65
2022-09-13T10:31:28.348Z,3.47
2022-09-13T10:34:31.681Z,3.80
2022-09-13T10:40:39.321Z,3.85
2022-09-13T10:43:40.667Z,4.30
2022-09-13T10:46:42.918Z,4.30
2022-09-13T10:49:46.865Z,3.97
2022-09-13T10:52:55.108Z,4.05
2022-09-13T10:55:56.373Z,3.63
2022-09-13T10:59:16.326Z,4.00
2022-09-13T11:02:17.534Z,4.15
2022-09-13T11:05:18.825Z,4.05
2022-09-13T11:08:20.149Z,3.30
2022-09-13T11:11:21.481Z,3.15
2022-09-13T11:14:28.890Z,3.00
2022-09-13T11:17:46.725Z,3.42
2022-09-13T11:20:53.846Z,3.17
2022-09-13T11:24:21.546Z,3.10
2022-09-13T11:27:37.987Z,4.00
2022-09-13T11:31:11.711Z,4.22
2022-09-13T11:34:22.380Z,4.32
2022-09-13T11:37:37.373Z,4.85
2022-09-13T11:40:38.584Z,4.22
2022-09-13T11:43:53.225Z,4.47
2022-09-13T11:46:59.132Z,3.90
2022-09-13T11:50:10.009Z,5.20
2022-09-13T11:53:39.377Z,4.50
2022-09-13T11:56:46.962Z,4.45
2022-09-13T11:59:51.827Z,5.40
2022-09-13T12:02:59.843Z,4.22
2022-09-13T12:06:02.932Z,4.00
2022-09-13T12:09:21.959Z,4.35
2022-09-13T12:12:26.319Z,4.45
2022-09-13T12:15:38.148Z,5.40
2022-09-13T12:18:41.901Z,4.70
2022-09-13T12:21:44.306Z,5.05
2022-09-13T12:24:51.093Z,4.97
2022-09-13T12:28:10.923Z,5.10
2022-09-13T12:31:19.503Z,5.38
2022-09-13T12:34:23.862Z,6.00
2022-09-13T12:37:25.161Z,5.15
2022-09-13T12:40:45.376Z,5.70
2022-09-13T12:43:58.601Z,5.28
2022-09-13T12:47:16.067Z,5.10
2022-09-13T12:50:42.889Z,5.20
2022-09-13T12:53:57.233Z,4.97
2022-09-13T12:56:58.534Z,4.82
2022-09-13T13:00:20.890Z,5.43
2022-09-13T13:03:23.317Z,5.20
2022-09-13T13:06:33.401Z,5.28
2022-09-13T13:12:37.027Z,4.97
2022-09-13T13:15:38.299Z,4.13
2022-09-13T13:18:42.792Z,3.92
2022-09-13T13:21:44.048Z,3.80
2022-09-13T13:24:46.711Z,3.90
2022-09-13T13:27:51.500Z,2.85
2022-09-13T13:30:53.954Z,3.25
2022-09-13T13:33:58.439Z,3.10
2022-09-13T13:37:24.356Z,2.65
2022-09-13T13:40:26.528Z,2.90
2022-09-13T13:43:27.784Z,2.60
2022-09-13T13:46:32.920Z,2.97
2022-09-13T13:49:38.864Z,2.67
2022-09-13T13:52:55.428Z,3.53
2022-09-13T13:56:29.619Z,3.20
2022-09-13T13:59:32.872Z,3.15
2022-09-13T14:02:49.403Z,2.35
2022-09-13T14:06:02.563Z,3.00
2022-09-13T14:09:09.856Z,2.17
2022-09-13T14:12:19.575Z,2.60
2022-09-13T14:15:32.753Z,2.97
2022-09-13T14:18:37.132Z,2.20
2022-09-13T14:21:38.755Z,2.92
2022-09-13T14:24:43.167Z,2.65
2022-09-13T14:27:45.268Z,3.15
2022-09-13T14:30:46.999Z,3.13
2022-09-13T14:33:48.600Z,2.83
2022-09-13T14:36:54.622Z,3.42
2022-09-13T14:40:01.101Z,2.95
2022-09-13T14:43:13.483Z,3.40
2022-09-13T14:46:22.002Z,4.47
2022-09-13T14:49:24.980Z,4.03
2022-09-13T14:52:31.823Z,4.05
2022-09-13T14:55:35.711Z,3.72
2022-09-13T14:58:47.904Z,4.13
2022-09-13T15:01:49.299Z,3.72
2022-09-13T15:04:52.132Z,3.47
2022-09-13T15:07:53.582Z,3.42
2022-09-13T15:10:57.019Z,3.05
2022-09-13T15:14:35.026Z,3.17
2022-09-13T15:17:51.198Z,3.00
2022-09-13T15:21:16.404Z,2.92
2022-09-13T15:24:22.250Z,2.88
2022-09-13T15:27:43.306Z,2.97
2022-09-13T15:30:44.854Z,3.25
2022-09-13T15:33:49.373Z,3.08
2022-09-13T15:37:14.070Z,3.95
2022-09-13T15:40:20.078Z,3.13
2022-09-13T15:43:21.394Z,3.92
2022-09-13T15:46:22.722Z,3.40
2022-09-13T15:49:26.419Z,3.22
2022-09-13T15:55:30.755Z,3.03
2022-09-13T15:58:32.618Z,3.35
2022-09-13T16:01:33.983Z,3.22
2022-09-13T16:04:35.305Z,3.30
2022-09-13T16:07:36.622Z,3.40
2022-09-13T16:10:37.888Z,3.20
2022-09-13T16:13:39.208Z,2.92
2022-09-13T16:16:40.823Z,2.80
2022-09-13T16:19:42.170Z,3.45
2022-09-13T16:22:43.455Z,3.40
2022-09-13T16:25:44.811Z,3.88
2022-09-13T16:28:46.095Z,3.33
2022-09-13T16:31:47.492Z,3.55
2022-09-13T16:34:48.860Z,3.38
2022-09-13T16:37:51.748Z,4.05
2022-09-13T16:40:53.365Z,2.90
2022-09-13T16:43:55.273Z,3.60
2022-09-13T16:46:56.593Z,3.78
2022-09-13T16:49:57.910Z,3.63
2022-09-13T16:52:59.179Z,3.20
2022-09-13T16:56:07.289Z,3.40
2022-09-13T16:59:08.540Z,3.58
2022-09-13T17:02:11.020Z,3.50
2022-09-13T17:05:12.712Z,3.33
2022-09-13T17:08:13.942Z,3.58
2022-09-13T17:11:16.668Z,3.67
2022-09-13T17:14:18.287Z,3.60
2022-09-13T17:17:20.366Z,3.70
2022-09-13T17:20:21.659Z,4.15
2022-09-13T17:23:22.931Z,4.13
2022-09-13T17:26:24.221Z,3.97
2022-09-13T17:29:28.202Z,4.88
2022-09-13T17:32:29.415Z,4.30
2022-09-13T17:35:30.769Z,4.93
2022-09-13T17:38:32.042Z,4.00
2022-09-13T17:41:33.653Z,4.70
2022-09-13T17:44:34.987Z,5.43
2022-09-13T17:47:36.236Z,4.63
2022-09-13T17:50:37.488Z,4.30
2022-09-13T17:53:39.723Z,5.28
2022-09-13T17:56:42.277Z,5.82
2022-09-13T17:59:43.590Z,4.88
2022-09-13T18:02:45.064Z,4.80
2022-09-13T18:05:46.364Z,5.03
2022-09-13T18:08:47.818Z,5.25
2022-09-13T18:11:49.586Z,4.43
2022-09-13T18:14:50.846Z,6.18
2022-09-13T18:17:52.073Z,4.75
2022-09-13T18:20:53.392Z,5.38
2022-09-13T18:23:57.925Z,4.85
2022-09-13T18:26:59.527Z,5.55
2022-09-13T18:30:02.354Z,5.40
2022-09-13T18:33:03.618Z,5.30
2022-09-13T18:36:06.218Z,5.45
2022-09-13T18:39:08.435Z,6.20
2022-09-13T18:42:09.693Z,6.00
2022-09-13T18:45:10.960Z,5.07
2022-09-13T18:48:12.252Z,5.22
2022-09-13T18:51:17.747Z,6.43
2022-09-13T18:54:19.186Z,5.35
2022-09-13T18:57:20.467Z,6.18
2022-09-13T19:00:22.396Z,5.38
2022-09-13T19:03:23.766Z,5.43
2022-09-13T19:06:26.269Z,5.90
2022-09-13T19:09:27.645Z,5.53
2022-09-13T19:12:28.931Z,5.43
2022-09-13T19:15:30.696Z,5.45
2022-09-13T19:18:32.532Z,5.97
2022-09-13T19:21:33.824Z,6.82
2022-09-13T19:24:37.138Z,5.55
2022-09-13T19:27:38.435Z,5.22
2022-09-13T19:30:39.705Z,5.43
2022-09-13T19:33:44.961Z,5.13
2022-09-13T19:36:47.108Z,5.07
2022-09-13T19:39:48.429Z,4.80
2022-09-13T19:42:49.765Z,4.95
2022-09-13T19:46:17.349Z,5.20
2022-09-13T19:49:18.724Z,5.40
2022-09-13T19:52:20.810Z,4.28
2022-09-13T19:55:23.576Z,4.65
2022-09-13T19:58:25.123Z,4.68
2022-09-13T20:01:28.150Z,4.75
2022-09-13T20:04:30.311Z,5.10
2022-09-13T20:07:31.682Z,4.47
2022-09-13T20:10:32.944Z,5.03
2022-09-13T20:13:34.611Z,4.78
2022-09-13T20:16:36.820Z,4.78
2022-09-13T20:19:46.206Z,4.95
2022-09-13T20:22:51.033Z,5.07
2022-09-13T20:25:52.318Z,4.75
2022-09-13T20:28:55.002Z,5.90
2022-09-13T20:31:56.255Z,4.53
2022-09-13T20:34:57.517Z,5.18
2022-09-13T20:37:58.804Z,4.80
2022-09-13T20:41:06.759Z,4.57
2022-09-13T20:44:08.568Z,4.40
2022-09-13T20:47:11.380Z,4.68
2022-09-13T20:50:12.962Z,4.60
2022-09-13T20:53:14.213Z,5.03
2022-09-13T20:56:17.296Z,4.55
2022-09-13T20:59:18.571Z,4.60
2022-09-13T21:02:19.844Z,5.45
2022-09-13T21:05:21.150Z,4.72
2022-09-13T21:08:41.267Z,4.53
2022-09-13T21:11:43.813Z,5.18
2022-09-13T21:14:46.306Z,4.57
2022-09-13T21:17:47.549Z,5.25
2022-09-13T21:20:55.914Z,4.40
2022-09-13T21:23:57.878Z,5.45
2022-09-13T21:26:59.367Z,4.95
2022-09-13T21:30:00.638Z,4.63
2022-09-13T21:33:01.891Z,4.65
2022-09-13T21:36:04.814Z,4.13
2022-09-13T21:39:06.462Z,4.63
2022-09-13T21:42:08.888Z,4.63
2022-09-13T21:45:10.235Z,4.75
2022-09-13T21:48:11.463Z,4.63
2022-09-13T21:51:26.441Z,4.55
2022-09-13T21:54:27.670Z,4.53
2022-09-13T21:57:28.915Z,4.45
2022-09-13T22:00:30.154Z,4.40
2022-09-13T22:03:34.140Z,4.65
2022-09-13T22:09:36.637Z,4.05
2022-09-13T22:12:37.894Z,3.88
2022-09-13T22:15:39.119Z,4.07
2022-09-13T22:18:40.545Z,4.57
2022-09-13T22:21:43.182Z,4.00
2022-09-13T22:24:46.055Z,4.22
2022-09-13T22:27:47.339Z,4.03
2022-09-13T22:30:48.634Z,4.00
2022-09-13T22:33:51.072Z,3.63
2022-09-13T22:36:55.389Z,3.70
2022-09-13T22:39:59.219Z,3.38
2022-09-13T22:43:00.542Z,3.90
2022-09-13T22:46:03.539Z,4.03
2022-09-13T22:49:05.576Z,3.47
2022-09-13T22:52:07.887Z,4.20
2022-09-13T22:55:09.237Z,4.30
2022-09-13T22:58:10.480Z,4.05
2022-09-13T23:01:12.942Z,4.10
2022-09-13T23:04:14.787Z,4.10
2022-09-13T23:07:16.030Z,4.25
2022-09-13T23:10:17.274Z,4.35
2022-09-13T23:13:18.726Z,3.83
2022-09-13T23:16:20.011Z,4.10
2022-09-13T23:19:22.369Z,3.53
2022-09-13T23:22:23.694Z,3.80
2022-09-13T23:25:24.962Z,3.50
2022-09-13T23:28:26.209Z,4.22
2022-09-13T23:31:29.231Z,3.85
2022-09-13T23:34:30.488Z,3.78
2022-09-13T23:37:31.720Z,3.70
2022-09-13T23:40:33.104Z,3.95
2022-09-13T23:43:34.368Z,4.07
2022-09-13T23:46:35.955Z,4.35
2022-09-13T23:49:37.199Z,4.57
2022-09-13T23:52:38.445Z,4.63
2022-09-13T23:55:39.694Z,4.78
2022-09-13T23:58:41.172Z,5.75
